sensor_id;sensor_type;location;lat;lon;timestamp;P1;durP1;ratioP1;P2;durP2;ratioP2
79005;SDS011;69202;45.498;-73.582;2023-12-20T00:01:55;2.38;;;0.80;;
79005;SDS011;69202;45.498;-73.582;2023-12-20T00:04:21;2.75;;;0.95;;
79005;SDS011;69202;45.498;-73.582;2023-12-20T00:06:47;1.90;;;0.95;;
79005;SDS011;69202;45.498;-73.582;2023-12-20T00:09:13;2.05;;;0.90;;
79005;SDS011;69202;45.498;-73.582;2023-12-20T00:11:39;3.70;;;0.93;;
79005;SDS011;69202;45.498;-73.582;2023-12-20T00:14:07;1.55;;;0.80;;
79005;SDS011;69202;45.498;-73.582;2023-12-20T00:16:33;1.23;;;0.77;;
79005;SDS011;69202;45.498;-73.582;2023-12-20T00:18:59;2.47;;;0.90;;
79005;SDS011;69202;45.498;-73.582;2023-12-20T00:21:24;2.58;;;0.90;;
79005;SDS011;69202;45.498;-73.582;2023-12-20T00:23:50;1.85;;;0.75;;
79005;SDS011;69202;45.498;-73.582;2023-12-20T00:26:16;1.80;;;0.85;;
79005;SDS011;69202;45.498;-73.582;2023-12-20T00:28:42;2.05;;;0.90;;
79005;SDS011;69202;45.498;-73.582;2023-12-20T00:31:08;2.83;;;1.08;;
79005;SDS011;69202;45.498;-73.582;2023-12-20T00:33:34;3.00;;;1.23;;
79005;SDS011;69202;45.498;-73.582;2023-12-20T00:36:00;1.98;;;0.85;;
79005;SDS011;69202;45.498;-73.582;2023-12-20T00:38:26;1.80;;;0.93;;
79005;SDS011;69202;45.498;-73.582;2023-12-20T00:40:52;2.00;;;0.70;;
79005;SDS011;69202;45.498;-73.582;2023-12-20T00:43:17;1.30;;;0.85;;
79005;SDS011;69202;45.498;-73.582;2023-12-20T00:45:43;1.75;;;0.73;;
79005;SDS011;69202;45.498;-73.582;2023-12-20T00:48:09;1.23;;;1.00;;
79005;SDS011;69202;45.498;-73.582;2023-12-20T00:50:35;1.88;;;1.20;;
79005;SDS011;69202;45.498;-73.582;2023-12-20T00:53:01;6.90;;;1.17;;
79005;SDS011;69202;45.498;-73.582;2023-12-20T00:55:27;2.28;;;1.10;;
79005;SDS011;69202;45.498;-73.582;2023-12-20T00:57:52;1.60;;;1.13;;
79005;SDS011;69202;45.498;-73.582;2023-12-20T01:00:19;1.50;;;1.30;;
79005;SDS011;69202;45.498;-73.582;2023-12-20T01:02:45;2.88;;;1.42;;
79005;SDS011;69202;45.498;-73.582;2023-12-20T01:05:14;1.35;;;1.15;;
79005;SDS011;69202;45.498;-73.582;2023-12-20T01:07:40;3.10;;;1.17;;
79005;SDS011;69202;45.498;-73.582;2023-12-20T01:10:06;2.25;;;1.17;;
79005;SDS011;69202;45.498;-73.582;2023-12-20T01:12:32;2.30;;;1.20;;
79005;SDS011;69202;45.498;-73.582;2023-12-20T01:14:58;1.80;;;1.20;;
79005;SDS011;69202;45.498;-73.582;2023-12-20T01:17:23;2.70;;;1.40;;
79005;SDS011;69202;45.498;-73.582;2023-12-20T01:19:50;2.30;;;1.20;;
79005;SDS011;69202;45.498;-73.582;2023-12-20T01:22:16;2.00;;;1.13;;
79005;SDS011;69202;45.498;-73.582;2023-12-20T01:24:42;2.03;;;1.33;;
79005;SDS011;69202;45.498;-73.582;2023-12-20T01:27:08;2.20;;;1.38;;
79005;SDS011;69202;45.498;-73.582;2023-12-20T01:29:35;2.60;;;1.35;;
79005;SDS011;69202;45.498;-73.582;2023-12-20T01:32:01;1.98;;;1.38;;
79005;SDS011;69202;45.498;-73.582;2023-12-20T01:34:27;2.92;;;0.93;;
79005;SDS011;69202;45.498;-73.582;2023-12-20T01:36:53;2.30;;;1.10;;
79005;SDS011;69202;45.498;-73.582;2023-12-20T01:39:19;3.22;;;1.13;;
79005;SDS011;69202;45.498;-73.582;2023-12-20T01:41:44;2.05;;;1.10;;
79005;SDS011;69202;45.498;-73.582;2023-12-20T01:44:11;1.20;;;0.90;;
79005;SDS011;69202;45.498;-73.582;2023-12-20T01:46:36;1.58;;;1.05;;
79005;SDS011;69202;45.498;-73.582;2023-12-20T01:49:03;1.65;;;0.98;;
79005;SDS011;69202;45.498;-73.582;2023-12-20T01:51:29;1.50;;;1.10;;
79005;SDS011;69202;45.498;-73.582;2023-12-20T01:53:55;1.40;;;1.23;;
79005;SDS011;69202;45.498;-73.582;2023-12-20T01:56:23;1.35;;;1.25;;
79005;SDS011;69202;45.498;-73.582;2023-12-20T01:58:50;1.35;;;1.10;;
79005;SDS011;69202;45.498;-73.582;2023-12-20T02:01:16;1.23;;;1.05;;
79005;SDS011;69202;45.498;-73.582;2023-12-20T02:03:44;2.40;;;1.40;;
79005;SDS011;69202;45.498;-73.582;2023-12-20T02:06:11;1.65;;;1.20;;
79005;SDS011;69202;45.498;-73.582;2023-12-20T02:08:37;1.38;;;1.10;;
79005;SDS011;69202;45.498;-73.582;2023-12-20T02:11:03;3.40;;;1.30;;
79005;SDS011;69202;45.498;-73.582;2023-12-20T02:13:30;2.78;;;1.02;;
79005;SDS011;69202;45.498;-73.582;2023-12-20T02:15:56;1.80;;;1.10;;
79005;SDS011;69202;45.498;-73.582;2023-12-20T02:18:22;3.75;;;1.20;;
79005;SDS011;69202;45.498;-73.582;2023-12-20T02:20:48;2.25;;;1.30;;
79005;SDS011;69202;45.498;-73.582;2023-12-20T02:23:14;5.63;;;1.40;;
79005;SDS011;69202;45.498;-73.582;2023-12-20T02:25:40;2.60;;;1.27;;
79005;SDS011;69202;45.498;-73.582;2023-12-20T02:28:06;2.25;;;1.15;;
79005;SDS011;69202;45.498;-73.582;2023-12-20T02:30:32;1.55;;;1.15;;
79005;SDS011;69202;45.498;-73.582;2023-12-20T02:32:59;1.92;;;1.10;;
79005;SDS011;69202;45.498;-73.582;2023-12-20T02:35:26;1.85;;;1.35;;
79005;SDS011;69202;45.498;-73.582;2023-12-20T02:37:52;1.48;;;1.00;;
79005;SDS011;69202;45.498;-73.582;2023-12-20T02:40:18;3.95;;;1.73;;
79005;SDS011;69202;45.498;-73.582;2023-12-20T02:42:44;1.95;;;1.15;;
79005;SDS011;69202;45.498;-73.582;2023-12-20T02:45:10;2.30;;;1.13;;
79005;SDS011;69202;45.498;-73.582;2023-12-20T02:47:35;2.33;;;1.00;;
79005;SDS011;69202;45.498;-73.582;2023-12-20T02:50:01;1.70;;;0.90;;
79005;SDS011;69202;45.498;-73.582;2023-12-20T02:52:28;1.95;;;1.20;;
79005;SDS011;69202;45.498;-73.582;2023-12-20T02:54:54;1.50;;;1.10;;
79005;SDS011;69202;45.498;-73.582;2023-12-20T02:57:20;1.17;;;1.02;;
79005;SDS011;69202;45.498;-73.582;2023-12-20T02:59:46;1.92;;;1.17;;
79005;SDS011;69202;45.498;-73.582;2023-12-20T03:02:12;1.73;;;1.05;;
79005;SDS011;69202;45.498;-73.582;2023-12-20T03:04:38;2.45;;;1.00;;
79005;SDS011;69202;45.498;-73.582;2023-12-20T03:07:04;2.92;;;1.13;;
79005;SDS011;69202;45.498;-73.582;2023-12-20T03:09:29;3.35;;;1.08;;
79005;SDS011;69202;45.498;-73.582;2023-12-20T03:11:55;1.38;;;1.10;;
79005;SDS011;69202;45.498;-73.582;2023-12-20T03:14:21;1.88;;;1.23;;
79005;SDS011;69202;45.498;-73.582;2023-12-20T03:16:50;1.27;;;0.93;;
79005;SDS011;69202;45.498;-73.582;2023-12-20T03:19:16;3.10;;;1.27;;
79005;SDS011;69202;45.498;-73.582;2023-12-20T03:21:45;4.20;;;1.10;;
79005;SDS011;69202;45.498;-73.582;2023-12-20T03:24:11;1.90;;;0.80;;
79005;SDS011;69202;45.498;-73.582;2023-12-20T03:26:37;3.53;;;1.40;;
79005;SDS011;69202;45.498;-73.582;2023-12-20T03:29:03;2.55;;;1.42;;
79005;SDS011;69202;45.498;-73.582;2023-12-20T03:31:29;4.65;;;1.20;;
79005;SDS011;69202;45.498;-73.582;2023-12-20T03:33:55;2.45;;;1.25;;
79005;SDS011;69202;45.498;-73.582;2023-12-20T03:36:20;2.55;;;1.08;;
79005;SDS011;69202;45.498;-73.582;2023-12-20T03:38:46;2.25;;;1.30;;
79005;SDS011;69202;45.498;-73.582;2023-12-20T03:41:13;1.20;;;0.90;;
79005;SDS011;69202;45.498;-73.582;2023-12-20T03:43:39;1.95;;;1.10;;
79005;SDS011;69202;45.498;-73.582;2023-12-20T03:46:05;1.95;;;1.30;;
79005;SDS011;69202;45.498;-73.582;2023-12-20T03:48:33;2.17;;;1.20;;
79005;SDS011;69202;45.498;-73.582;2023-12-20T03:50:59;4.65;;;1.13;;
79005;SDS011;69202;45.498;-73.582;2023-12-20T03:53:25;4.03;;;1.05;;
79005;SDS011;69202;45.498;-73.582;2023-12-20T03:55:51;3.75;;;0.93;;
79005;SDS011;69202;45.498;-73.582;2023-12-20T03:58:17;2.58;;;1.17;;
79005;SDS011;69202;45.498;-73.582;2023-12-20T04:00:44;2.55;;;1.00;;
79005;SDS011;69202;45.498;-73.582;2023-12-20T04:03:10;2.47;;;1.10;;
79005;SDS011;69202;45.498;-73.582;2023-12-20T04:05:39;1.63;;;1.27;;
79005;SDS011;69202;45.498;-73.582;2023-12-20T04:08:05;2.25;;;1.00;;
79005;SDS011;69202;45.498;-73.582;2023-12-20T04:10:32;1.75;;;1.20;;
79005;SDS011;69202;45.498;-73.582;2023-12-20T04:12:58;5.30;;;1.30;;
79005;SDS011;69202;45.498;-73.582;2023-12-20T04:15:24;5.50;;;1.30;;
79005;SDS011;69202;45.498;-73.582;2023-12-20T04:17:51;2.08;;;1.10;;
79005;SDS011;69202;45.498;-73.582;2023-12-20T04:20:17;1.65;;;1.08;;
79005;SDS011;69202;45.498;-73.582;2023-12-20T04:22:43;1.38;;;0.70;;
79005;SDS011;69202;45.498;-73.582;2023-12-20T04:25:09;3.80;;;1.27;;
79005;SDS011;69202;45.498;-73.582;2023-12-20T04:27:35;1.42;;;0.90;;
79005;SDS011;69202;45.498;-73.582;2023-12-20T04:30:01;1.75;;;0.95;;
79005;SDS011;69202;45.498;-73.582;2023-12-20T04:32:29;1.90;;;0.90;;
79005;SDS011;69202;45.498;-73.582;2023-12-20T04:34:55;2.90;;;1.13;;
79005;SDS011;69202;45.498;-73.582;2023-12-20T04:37:21;2.13;;;1.00;;
79005;SDS011;69202;45.498;-73.582;2023-12-20T04:39:47;1.92;;;0.95;;
79005;SDS011;69202;45.498;-73.582;2023-12-20T04:42:12;1.98;;;0.90;;
79005;SDS011;69202;45.498;-73.582;2023-12-20T04:44:38;1.40;;;1.00;;
79005;SDS011;69202;45.498;-73.582;2023-12-20T04:47:04;2.90;;;0.90;;
79005;SDS011;69202;45.498;-73.582;2023-12-20T04:49:30;1.00;;;0.90;;
79005;SDS011;69202;45.498;-73.582;2023-12-20T04:51:56;1.38;;;0.73;;
79005;SDS011;69202;45.498;-73.582;2023-12-20T04:54:22;2.85;;;1.05;;
79005;SDS011;69202;45.498;-73.582;2023-12-20T04:56:48;2.78;;;1.30;;
79005;SDS011;69202;45.498;-73.582;2023-12-20T04:59:13;1.58;;;1.00;;
79005;SDS011;69202;45.498;-73.582;2023-12-20T05:01:40;2.00;;;1.10;;
79005;SDS011;69202;45.498;-73.582;2023-12-20T05:04:07;4.70;;;1.00;;
79005;SDS011;69202;45.498;-73.582;2023-12-20T05:06:33;2.53;;;1.00;;
79005;SDS011;69202;45.498;-73.582;2023-12-20T05:09:00;2.78;;;1.60;;
79005;SDS011;69202;45.498;-73.582;2023-12-20T05:11:25;2.30;;;1.00;;
79005;SDS011;69202;45.498;-73.582;2023-12-20T05:13:51;1.10;;;1.00;;
79005;SDS011;69202;45.498;-73.582;2023-12-20T05:16:17;1.25;;;0.80;;
79005;SDS011;69202;45.498;-73.582;2023-12-20T05:18:44;1.13;;;0.70;;
79005;SDS011;69202;45.498;-73.582;2023-12-20T05:21:10;3.65;;;0.95;;
79005;SDS011;69202;45.498;-73.582;2023-12-20T05:23:36;4.38;;;0.90;;
79005;SDS011;69202;45.498;-73.582;2023-12-20T05:26:02;1.60;;;0.80;;
79005;SDS011;69202;45.498;-73.582;2023-12-20T05:28:28;1.25;;;0.70;;
79005;SDS011;69202;45.498;-73.582;2023-12-20T05:30:54;1.27;;;0.75;;
79005;SDS011;69202;45.498;-73.582;2023-12-20T05:33:21;1.00;;;0.80;;
79005;SDS011;69202;45.498;-73.582;2023-12-20T05:35:47;1.48;;;0.95;;
79005;SDS011;69202;45.498;-73.582;2023-12-20T05:38:13;1.55;;;0.80;;
79005;SDS011;69202;45.498;-73.582;2023-12-20T05:40:39;1.65;;;1.00;;
79005;SDS011;69202;45.498;-73.582;2023-12-20T05:43:06;1.48;;;0.82;;
79005;SDS011;69202;45.498;-73.582;2023-12-20T05:45:32;1.00;;;0.90;;
79005;SDS011;69202;45.498;-73.582;2023-12-20T05:47:59;3.90;;;1.27;;
79005;SDS011;69202;45.498;-73.582;2023-12-20T05:50:26;1.85;;;1.02;;
79005;SDS011;69202;45.498;-73.582;2023-12-20T05:52:52;3.00;;;1.17;;
79005;SDS011;69202;45.498;-73.582;2023-12-20T05:55:19;2.45;;;1.20;;
79005;SDS011;69202;45.498;-73.582;2023-12-20T05:57:44;1.95;;;1.10;;
79005;SDS011;69202;45.498;-73.582;2023-12-20T06:00:10;4.38;;;1.30;;
79005;SDS011;69202;45.498;-73.582;2023-12-20T06:02:37;2.30;;;1.15;;
79005;SDS011;69202;45.498;-73.582;2023-12-20T06:05:04;4.47;;;1.45;;
79005;SDS011;69202;45.498;-73.582;2023-12-20T06:07:30;2.50;;;1.10;;
79005;SDS011;69202;45.498;-73.582;2023-12-20T06:09:56;6.15;;;1.50;;
79005;SDS011;69202;45.498;-73.582;2023-12-20T06:12:22;2.03;;;1.40;;
79005;SDS011;69202;45.498;-73.582;2023-12-20T06:14:48;1.90;;;1.40;;
79005;SDS011;69202;45.498;-73.582;2023-12-20T06:17:14;3.60;;;1.70;;
79005;SDS011;69202;45.498;-73.582;2023-12-20T06:19:39;2.13;;;1.33;;
79005;SDS011;69202;45.498;-73.582;2023-12-20T06:22:07;2.55;;;1.40;;
79005;SDS011;69202;45.498;-73.582;2023-12-20T06:24:33;2.97;;;1.50;;
79005;SDS011;69202;45.498;-73.582;2023-12-20T06:26:59;2.45;;;1.50;;
79005;SDS011;69202;45.498;-73.582;2023-12-20T06:29:26;3.58;;;1.92;;
79005;SDS011;69202;45.498;-73.582;2023-12-20T06:31:52;1.60;;;1.30;;
79005;SDS011;69202;45.498;-73.582;2023-12-20T06:34:17;3.80;;;1.65;;
79005;SDS011;69202;45.498;-73.582;2023-12-20T06:36:43;2.08;;;1.35;;
79005;SDS011;69202;45.498;-73.582;2023-12-20T06:39:09;2.25;;;1.17;;
79005;SDS011;69202;45.498;-73.582;2023-12-20T06:41:38;4.00;;;1.70;;
79005;SDS011;69202;45.498;-73.582;2023-12-20T06:44:04;3.38;;;1.50;;
79005;SDS011;69202;45.498;-73.582;2023-12-20T06:46:30;5.47;;;1.75;;
79005;SDS011;69202;45.498;-73.582;2023-12-20T06:48:56;3.95;;;1.40;;
79005;SDS011;69202;45.498;-73.582;2023-12-20T06:51:22;2.35;;;1.23;;
79005;SDS011;69202;45.498;-73.582;2023-12-20T06:53:51;2.60;;;1.00;;
79005;SDS011;69202;45.498;-73.582;2023-12-20T06:56:17;2.58;;;1.50;;
79005;SDS011;69202;45.498;-73.582;2023-12-20T06:58:43;3.08;;;1.40;;
79005;SDS011;69202;45.498;-73.582;2023-12-20T07:01:15;4.63;;;1.35;;
79005;SDS011;69202;45.498;-73.582;2023-12-20T07:03:42;4.15;;;1.42;;
79005;SDS011;69202;45.498;-73.582;2023-12-20T07:06:08;2.20;;;1.20;;
79005;SDS011;69202;45.498;-73.582;2023-12-20T07:08:34;2.83;;;1.00;;
79005;SDS011;69202;45.498;-73.582;2023-12-20T07:11:00;1.33;;;1.00;;
79005;SDS011;69202;45.498;-73.582;2023-12-20T07:13:26;5.88;;;1.15;;
79005;SDS011;69202;45.498;-73.582;2023-12-20T07:15:52;3.20;;;1.60;;
79005;SDS011;69202;45.498;-73.582;2023-12-20T07:18:17;2.65;;;1.23;;
79005;SDS011;69202;45.498;-73.582;2023-12-20T07:20:44;3.15;;;1.35;;
79005;SDS011;69202;45.498;-73.582;2023-12-20T07:23:10;1.63;;;1.15;;
79005;SDS011;69202;45.498;-73.582;2023-12-20T07:25:36;2.25;;;1.30;;
79005;SDS011;69202;45.498;-73.582;2023-12-20T07:28:02;2.17;;;1.13;;
79005;SDS011;69202;45.498;-73.582;2023-12-20T07:30:28;1.45;;;1.00;;
79005;SDS011;69202;45.498;-73.582;2023-12-20T07:32:54;3.33;;;1.48;;
79005;SDS011;69202;45.498;-73.582;2023-12-20T07:35:20;4.38;;;1.40;;
79005;SDS011;69202;45.498;-73.582;2023-12-20T07:37:46;3.33;;;1.25;;
79005;SDS011;69202;45.498;-73.582;2023-12-20T07:40:12;2.92;;;1.55;;
79005;SDS011;69202;45.498;-73.582;2023-12-20T07:42:40;3.60;;;1.50;;
79005;SDS011;69202;45.498;-73.582;2023-12-20T07:45:06;1.73;;;1.15;;
79005;SDS011;69202;45.498;-73.582;2023-12-20T07:47:32;1.88;;;1.20;;
79005;SDS011;69202;45.498;-73.582;2023-12-20T07:49:58;5.07;;;1.42;;
79005;SDS011;69202;45.498;-73.582;2023-12-20T07:52:24;3.33;;;1.42;;
79005;SDS011;69202;45.498;-73.582;2023-12-20T07:54:51;3.85;;;1.65;;
79005;SDS011;69202;45.498;-73.582;2023-12-20T07:57:17;2.30;;;1.50;;
79005;SDS011;69202;45.498;-73.582;2023-12-20T07:59:43;2.67;;;1.30;;
79005;SDS011;69202;45.498;-73.582;2023-12-20T08:02:09;2.92;;;1.30;;
79005;SDS011;69202;45.498;-73.582;2023-12-20T08:04:35;2.30;;;1.33;;
79005;SDS011;69202;45.498;-73.582;2023-12-20T08:07:01;1.50;;;1.10;;
79005;SDS011;69202;45.498;-73.582;2023-12-20T08:09:27;1.10;;;0.80;;
79005;SDS011;69202;45.498;-73.582;2023-12-20T08:11:53;3.00;;;1.55;;
79005;SDS011;69202;45.498;-73.582;2023-12-20T08:14:19;2.08;;;1.10;;
79005;SDS011;69202;45.498;-73.582;2023-12-20T08:16:45;2.83;;;0.90;;
79005;SDS011;69202;45.498;-73.582;2023-12-20T08:19:11;2.58;;;1.30;;
79005;SDS011;69202;45.498;-73.582;2023-12-20T08:21:37;0.98;;;0.82;;
79005;SDS011;69202;45.498;-73.582;2023-12-20T08:24:03;2.75;;;1.25;;
79005;SDS011;69202;45.498;-73.582;2023-12-20T08:26:29;1.52;;;1.00;;
79005;SDS011;69202;45.498;-73.582;2023-12-20T08:28:55;4.45;;;1.17;;
79005;SDS011;69202;45.498;-73.582;2023-12-20T08:31:21;1.77;;;1.30;;
79005;SDS011;69202;45.498;-73.582;2023-12-20T08:33:47;1.77;;;1.13;;
79005;SDS011;69202;45.498;-73.582;2023-12-20T08:36:14;1.85;;;1.10;;
79005;SDS011;69202;45.498;-73.582;2023-12-20T08:38:43;3.00;;;1.10;;
79005;SDS011;69202;45.498;-73.582;2023-12-20T08:41:09;2.53;;;1.30;;
79005;SDS011;69202;45.498;-73.582;2023-12-20T08:43:35;2.63;;;1.20;;
79005;SDS011;69202;45.498;-73.582;2023-12-20T08:46:01;3.70;;;1.60;;
79005;SDS011;69202;45.498;-73.582;2023-12-20T08:48:27;1.25;;;1.00;;
79005;SDS011;69202;45.498;-73.582;2023-12-20T08:50:54;2.67;;;1.50;;
79005;SDS011;69202;45.498;-73.582;2023-12-20T08:53:20;1.80;;;1.30;;
79005;SDS011;69202;45.498;-73.582;2023-12-20T08:55:46;1.60;;;1.33;;
79005;SDS011;69202;45.498;-73.582;2023-12-20T08:58:13;3.67;;;1.45;;
79005;SDS011;69202;45.498;-73.582;2023-12-20T09:00:42;2.50;;;1.42;;
79005;SDS011;69202;45.498;-73.582;2023-12-20T09:03:08;2.63;;;1.30;;
79005;SDS011;69202;45.498;-73.582;2023-12-20T09:05:34;2.58;;;1.42;;
79005;SDS011;69202;45.498;-73.582;2023-12-20T09:08:00;2.05;;;1.27;;
79005;SDS011;69202;45.498;-73.582;2023-12-20T09:10:26;3.40;;;1.80;;
79005;SDS011;69202;45.498;-73.582;2023-12-20T09:12:52;2.47;;;1.92;;
79005;SDS011;69202;45.498;-73.582;2023-12-20T09:15:25;2.17;;;1.17;;
79005;SDS011;69202;45.498;-73.582;2023-12-20T09:17:52;2.17;;;1.40;;
79005;SDS011;69202;45.498;-73.582;2023-12-20T09:20:19;3.40;;;1.67;;
79005;SDS011;69202;45.498;-73.582;2023-12-20T09:22:45;2.72;;;1.60;;
79005;SDS011;69202;45.498;-73.582;2023-12-20T09:25:11;2.95;;;1.67;;
79005;SDS011;69202;45.498;-73.582;2023-12-20T09:27:38;2.33;;;1.42;;
79005;SDS011;69202;45.498;-73.582;2023-12-20T09:30:04;2.90;;;1.77;;
79005;SDS011;69202;45.498;-73.582;2023-12-20T09:32:31;3.55;;;1.50;;
79005;SDS011;69202;45.498;-73.582;2023-12-20T09:34:57;3.80;;;1.80;;
79005;SDS011;69202;45.498;-73.582;2023-12-20T09:37:25;3.05;;;1.73;;
79005;SDS011;69202;45.498;-73.582;2023-12-20T09:39:52;3.33;;;1.52;;
79005;SDS011;69202;45.498;-73.582;2023-12-20T09:43:04;2.83;;;1.92;;
79005;SDS011;69202;45.498;-73.582;2023-12-20T09:45:20;3.92;;;1.77;;
79005;SDS011;69202;45.498;-73.582;2023-12-20T09:47:47;3.03;;;1.50;;
79005;SDS011;69202;45.498;-73.582;2023-12-20T09:50:18;2.55;;;1.50;;
79005;SDS011;69202;45.498;-73.582;2023-12-20T09:52:47;3.20;;;1.90;;
79005;SDS011;69202;45.498;-73.582;2023-12-20T09:55:16;2.70;;;1.70;;
79005;SDS011;69202;45.498;-73.582;2023-12-20T09:57:44;2.00;;;1.50;;
79005;SDS011;69202;45.498;-73.582;2023-12-20T10:00:11;4.90;;;2.03;;
79005;SDS011;69202;45.498;-73.582;2023-12-20T10:02:50;4.43;;;1.60;;
79005;SDS011;69202;45.498;-73.582;2023-12-20T10:05:26;2.08;;;1.48;;
79005;SDS011;69202;45.498;-73.582;2023-12-20T10:08:00;2.30;;;1.48;;
79005;SDS011;69202;45.498;-73.582;2023-12-20T10:10:28;4.32;;;1.83;;
79005;SDS011;69202;45.498;-73.582;2023-12-20T10:13:12;2.22;;;1.52;;
79005;SDS011;69202;45.498;-73.582;2023-12-20T10:15:38;3.63;;;2.00;;
79005;SDS011;69202;45.498;-73.582;2023-12-20T10:18:06;4.13;;;1.90;;
79005;SDS011;69202;45.498;-73.582;2023-12-20T10:20:32;4.82;;;1.75;;
79005;SDS011;69202;45.498;-73.582;2023-12-20T10:22:58;4.30;;;1.80;;
79005;SDS011;69202;45.498;-73.582;2023-12-20T10:25:25;3.03;;;1.92;;
79005;SDS011;69202;45.498;-73.582;2023-12-20T10:30:37;2.23;;;1.67;;
79005;SDS011;69202;45.498;-73.582;2023-12-20T10:33:04;3.65;;;1.85;;
79005;SDS011;69202;45.498;-73.582;2023-12-20T10:35:32;4.25;;;1.90;;
79005;SDS011;69202;45.498;-73.582;2023-12-20T10:37:58;2.58;;;1.95;;
79005;SDS011;69202;45.498;-73.582;2023-12-20T10:40:28;2.90;;;1.67;;
79005;SDS011;69202;45.498;-73.582;2023-12-20T10:42:55;4.57;;;1.77;;
79005;SDS011;69202;45.498;-73.582;2023-12-20T10:45:22;8.27;;;2.10;;
79005;SDS011;69202;45.498;-73.582;2023-12-20T10:47:49;3.10;;;1.90;;
79005;SDS011;69202;45.498;-73.582;2023-12-20T10:50:16;3.40;;;1.98;;
79005;SDS011;69202;45.498;-73.582;2023-12-20T10:52:42;3.97;;;2.05;;
79005;SDS011;69202;45.498;-73.582;2023-12-20T10:55:10;6.72;;;2.22;;
79005;SDS011;69202;45.498;-73.582;2023-12-20T10:57:36;8.35;;;2.33;;
79005;SDS011;69202;45.498;-73.582;2023-12-20T11:00:02;5.18;;;2.15;;
79005;SDS011;69202;45.498;-73.582;2023-12-20T11:02:30;3.67;;;2.05;;
79005;SDS011;69202;45.498;-73.582;2023-12-20T11:05:06;6.05;;;2.75;;
79005;SDS011;69202;45.498;-73.582;2023-12-20T11:07:49;4.43;;;1.85;;
79005;SDS011;69202;45.498;-73.582;2023-12-20T11:10:27;5.10;;;1.73;;
79005;SDS011;69202;45.498;-73.582;2023-12-20T11:13:17;5.43;;;1.70;;
79005;SDS011;69202;45.498;-73.582;2023-12-20T11:15:48;5.22;;;1.85;;
79005;SDS011;69202;45.498;-73.582;2023-12-20T11:18:14;3.55;;;1.40;;
79005;SDS011;69202;45.498;-73.582;2023-12-20T11:20:41;3.10;;;1.73;;
79005;SDS011;69202;45.498;-73.582;2023-12-20T11:23:07;4.03;;;1.80;;
79005;SDS011;69202;45.498;-73.582;2023-12-20T11:25:53;2.13;;;1.42;;
79005;SDS011;69202;45.498;-73.582;2023-12-20T11:28:22;3.47;;;1.85;;
79005;SDS011;69202;45.498;-73.582;2023-12-20T11:33:26;3.20;;;1.60;;
79005;SDS011;69202;45.498;-73.582;2023-12-20T11:35:56;2.13;;;1.42;;
79005;SDS011;69202;45.498;-73.582;2023-12-20T11:38:25;4.43;;;1.98;;
79005;SDS011;69202;45.498;-73.582;2023-12-20T11:40:51;3.05;;;1.60;;
79005;SDS011;69202;45.498;-73.582;2023-12-20T11:43:32;3.13;;;1.77;;
79005;SDS011;69202;45.498;-73.582;2023-12-20T11:46:04;3.13;;;1.67;;
79005;SDS011;69202;45.498;-73.582;2023-12-20T11:48:31;4.45;;;1.95;;
79005;SDS011;69202;45.498;-73.582;2023-12-20T11:50:58;4.63;;;1.80;;
79005;SDS011;69202;45.498;-73.582;2023-12-20T11:53:24;3.08;;;1.65;;
79005;SDS011;69202;45.498;-73.582;2023-12-20T11:55:50;4.15;;;1.85;;
79005;SDS011;69202;45.498;-73.582;2023-12-20T11:58:16;5.30;;;1.90;;
79005;SDS011;69202;45.498;-73.582;2023-12-20T12:00:42;3.35;;;1.50;;
79005;SDS011;69202;45.498;-73.582;2023-12-20T12:03:09;3.33;;;2.00;;
79005;SDS011;69202;45.498;-73.582;2023-12-20T12:05:35;6.40;;;2.10;;
79005;SDS011;69202;45.498;-73.582;2023-12-20T12:08:02;4.68;;;1.77;;
79005;SDS011;69202;45.498;-73.582;2023-12-20T12:10:31;3.72;;;1.95;;
79005;SDS011;69202;45.498;-73.582;2023-12-20T12:12:56;3.95;;;2.05;;
79005;SDS011;69202;45.498;-73.582;2023-12-20T12:15:24;6.30;;;2.30;;
79005;SDS011;69202;45.498;-73.582;2023-12-20T12:17:56;4.60;;;2.20;;
79005;SDS011;69202;45.498;-73.582;2023-12-20T12:20:22;3.92;;;2.10;;
79005;SDS011;69202;45.498;-73.582;2023-12-20T12:22:58;5.18;;;2.30;;
79005;SDS011;69202;45.498;-73.582;2023-12-20T12:25:25;7.80;;;2.40;;
79005;SDS011;69202;45.498;-73.582;2023-12-20T12:27:52;3.70;;;1.80;;
79005;SDS011;69202;45.498;-73.582;2023-12-20T12:30:18;3.50;;;1.90;;
79005;SDS011;69202;45.498;-73.582;2023-12-20T12:32:44;6.30;;;2.30;;
79005;SDS011;69202;45.498;-73.582;2023-12-20T12:35:10;5.57;;;2.28;;
79005;SDS011;69202;45.498;-73.582;2023-12-20T12:37:40;8.80;;;1.92;;
79005;SDS011;69202;45.498;-73.582;2023-12-20T12:40:07;5.40;;;2.10;;
79005;SDS011;69202;45.498;-73.582;2023-12-20T12:42:39;2.95;;;1.70;;
79005;SDS011;69202;45.498;-73.582;2023-12-20T12:45:06;5.20;;;2.25;;
79005;SDS011;69202;45.498;-73.582;2023-12-20T12:47:33;6.05;;;2.15;;
79005;SDS011;69202;45.498;-73.582;2023-12-20T12:49:59;3.15;;;2.10;;
79005;SDS011;69202;45.498;-73.582;2023-12-20T12:52:25;2.22;;;1.48;;
79005;SDS011;69202;45.498;-73.582;2023-12-20T12:54:52;5.78;;;1.58;;
79005;SDS011;69202;45.498;-73.582;2023-12-20T12:57:19;4.05;;;2.15;;
79005;SDS011;69202;45.498;-73.582;2023-12-20T12:59:45;2.47;;;1.35;;
79005;SDS011;69202;45.498;-73.582;2023-12-20T13:02:12;4.10;;;2.00;;
79005;SDS011;69202;45.498;-73.582;2023-12-20T13:04:40;3.88;;;2.58;;
79005;SDS011;69202;45.498;-73.582;2023-12-20T13:07:07;3.97;;;2.47;;
79005;SDS011;69202;45.498;-73.582;2023-12-20T13:09:38;9.07;;;2.55;;
79005;SDS011;69202;45.498;-73.582;2023-12-20T13:12:05;5.63;;;2.60;;
79005;SDS011;69202;45.498;-73.582;2023-12-20T13:14:33;5.10;;;2.53;;
79005;SDS011;69202;45.498;-73.582;2023-12-20T13:17:00;9.77;;;2.80;;
79005;SDS011;69202;45.498;-73.582;2023-12-20T13:19:26;13.35;;;3.78;;
79005;SDS011;69202;45.498;-73.582;2023-12-20T13:21:52;7.10;;;2.90;;
79005;SDS011;69202;45.498;-73.582;2023-12-20T13:24:18;9.30;;;2.90;;
79005;SDS011;69202;45.498;-73.582;2023-12-20T13:26:44;10.77;;;3.63;;
79005;SDS011;69202;45.498;-73.582;2023-12-20T13:29:10;8.55;;;2.80;;
79005;SDS011;69202;45.498;-73.582;2023-12-20T13:31:37;7.85;;;3.28;;
79005;SDS011;69202;45.498;-73.582;2023-12-20T13:34:03;11.80;;;3.67;;
79005;SDS011;69202;45.498;-73.582;2023-12-20T13:36:29;6.72;;;3.08;;
79005;SDS011;69202;45.498;-73.582;2023-12-20T13:38:55;9.02;;;3.80;;
79005;SDS011;69202;45.498;-73.582;2023-12-20T13:41:21;5.95;;;2.85;;
79005;SDS011;69202;45.498;-73.582;2023-12-20T13:43:47;7.72;;;3.03;;
79005;SDS011;69202;45.498;-73.582;2023-12-20T13:46:13;8.35;;;3.10;;
79005;SDS011;69202;45.498;-73.582;2023-12-20T13:48:39;8.15;;;3.05;;
79005;SDS011;69202;45.498;-73.582;2023-12-20T13:51:05;10.32;;;2.97;;
79005;SDS011;69202;45.498;-73.582;2023-12-20T13:53:31;7.28;;;2.67;;
79005;SDS011;69202;45.498;-73.582;2023-12-20T13:55:57;9.27;;;3.10;;
79005;SDS011;69202;45.498;-73.582;2023-12-20T13:58:25;9.15;;;2.85;;
79005;SDS011;69202;45.498;-73.582;2023-12-20T14:00:51;13.88;;;3.25;;
79005;SDS011;69202;45.498;-73.582;2023-12-20T14:03:17;7.75;;;3.38;;
79005;SDS011;69202;45.498;-73.582;2023-12-20T14:05:45;13.00;;;3.63;;
79005;SDS011;69202;45.498;-73.582;2023-12-20T14:08:11;10.15;;;3.60;;
79005;SDS011;69202;45.498;-73.582;2023-12-20T14:10:36;4.97;;;1.98;;
79005;SDS011;69202;45.498;-73.582;2023-12-20T14:13:04;4.75;;;2.78;;
79005;SDS011;69202;45.498;-73.582;2023-12-20T14:15:30;13.98;;;2.95;;
79005;SDS011;69202;45.498;-73.582;2023-12-20T14:18:03;9.43;;;3.20;;
79005;SDS011;69202;45.498;-73.582;2023-12-20T14:20:31;6.78;;;2.90;;
79005;SDS011;69202;45.498;-73.582;2023-12-20T14:23:00;9.45;;;2.90;;
79005;SDS011;69202;45.498;-73.582;2023-12-20T14:25:26;5.05;;;2.55;;